Time;durP1;ratioP1;P1;durP2;ratioP2;P2;SDS_P1;SDS_P2;PMS_P1;PMS_P2;Temp;Humidity;BMP_temperature;BMP_pressure;BME280_temperature;BME280_humidity;BME280_pressure;Samples;Min_cycle;Max_cycle;Signal;HPM_P1;HPM_P2
2022/07/19 00:02:05;;;;;;;13.50;5.97;;;;;;;;;;4994044;28;20037;-69
2022/07/19 00:04:32;;;;;;;14.23;5.95;;;;;;;;;;4993593;28;20058;-69
2022/07/19 00:06:58;;;;;;;12.27;6.65;;;;;;;;;;4993934;28;20026;-69
2022/07/19 00:09:25;;;;;;;13.77;5.90;;;;;;;;;;4993905;28;20156;-69
2022/07/19 00:11:51;;;;;;;14.40;6.13;;;;;;;;;;4993805;28;20033;-70
2022/07/19 00:14:17;;;;;;;12.07;5.75;;;;;;;;;;4994133;28;20037;-70
2022/07/19 00:16:43;;;;;;;12.10;6.00;;;;;;;;;;4993813;28;20023;-69
2022/07/19 00:19:10;;;;;;;23.30;6.00;;;;;;;;;;4993854;28;20058;-70
2022/07/19 00:21:36;;;;;;;15.10;5.50;;;;;;;;;;4994351;28;20102;-69
2022/07/19 00:24:02;;;;;;;17.55;6.28;;;;;;;;;;4993792;28;20030;-70
2022/07/19 00:26:28;;;;;;;13.38;6.03;;;;;;;;;;4994037;28;20121;-69
2022/07/19 00:28:54;;;;;;;15.63;6.40;;;;;;;;;;4994012;28;20503;-69
2022/07/19 00:31:24;;;;;;;17.45;7.07;;;;;;;;;;4993676;28;20374;-69
2022/07/19 00:33:50;;;;;;;16.83;5.85;;;;;;;;;;4994214;28;20073;-70
2022/07/19 00:36:16;;;;;;;16.10;7.22;;;;;;;;;;4993695;28;20366;-70
2022/07/19 00:38:42;;;;;;;18.35;6.82;;;;;;;;;;4993647;28;20026;-70
2022/07/19 00:41:08;;;;;;;15.32;6.60;;;;;;;;;;4993878;28;20499;-70
2022/07/19 00:43:34;;;;;;;13.65;6.43;;;;;;;;;;4993649;28;20026;-69
2022/07/19 00:46:01;;;;;;;11.80;5.28;;;;;;;;;;4976103;28;20480;-69
2022/07/19 00:48:28;;;;;;;13.82;5.82;;;;;;;;;;4993630;28;20156;-69
2022/07/19 00:50:54;;;;;;;15.20;5.88;;;;;;;;;;4993502;28;20049;-69
2022/07/19 00:53:20;;;;;;;13.63;5.78;;;;;;;;;;4993820;28;20022;-69
2022/07/19 00:55:46;;;;;;;14.90;5.93;;;;;;;;;;4994025;28;20109;-69
2022/07/19 00:58:13;;;;;;;11.10;5.55;;;;;;;;;;4994635;28;20102;-68
2022/07/19 01:00:40;;;;;;;15.90;6.35;;;;;;;;;;4997293;28;20042;-69
2022/07/19 01:03:10;;;;;;;14.82;6.50;;;;;;;;;;4997144;28;20404;-69
2022/07/19 01:05:36;;;;;;;12.35;5.93;;;;;;;;;;4997306;28;20124;-69
2022/07/19 01:08:02;;;;;;;15.60;5.38;;;;;;;;;;4997210;28;20526;-70
2022/07/19 01:10:28;;;;;;;14.40;6.00;;;;;;;;;;4997150;28;20037;-70
2022/07/19 01:12:55;;;;;;;13.93;5.85;;;;;;;;;;4997310;28;20022;-69
2022/07/19 01:15:25;;;;;;;12.98;5.75;;;;;;;;;;4997058;28;20105;-69
2022/07/19 01:17:52;;;;;;;10.90;5.47;;;;;;;;;;4997278;28;20019;-70
2022/07/19 01:20:18;;;;;;;17.98;6.68;;;;;;;;;;4997025;28;20034;-69
2022/07/19 01:22:45;;;;;;;13.82;6.35;;;;;;;;;;4997229;28;20053;-69
2022/07/19 01:25:11;;;;;;;15.13;6.18;;;;;;;;;;4979444;28;20049;-70
2022/07/19 01:27:41;;;;;;;15.02;6.30;;;;;;;;;;4996847;28;20023;-70
2022/07/19 01:30:17;;;;;;;13.40;5.45;;;;;;;;;;4996768;28;20034;-69
2022/07/19 01:32:45;;;;;;;18.73;6.80;;;;;;;;;;4996960;28;20023;-69
2022/07/19 01:35:12;;;;;;;14.10;6.13;;;;;;;;;;4997704;28;20389;-69
2022/07/19 01:37:38;;;;;;;17.58;6.68;;;;;;;;;;4996679;28;20030;-69
2022/07/19 01:40:05;;;;;;;11.52;5.72;;;;;;;;;;4996572;28;20022;-68
2022/07/19 01:42:31;;;;;;;13.45;6.47;;;;;;;;;;4997064;28;20033;-70
2022/07/19 01:44:57;;;;;;;17.73;5.97;;;;;;;;;;4996509;28;20030;-69
2022/07/19 01:47:23;;;;;;;12.70;5.93;;;;;;;;;;4996725;28;20385;-69
2022/07/19 01:49:50;;;;;;;12.23;6.47;;;;;;;;;;4996409;28;20030;-70
2022/07/19 01:52:16;;;;;;;14.38;5.88;;;;;;;;;;4996813;28;20026;-70
2022/07/19 01:54:42;;;;;;;10.38;5.75;;;;;;;;;;4996320;28;20026;-69
2022/07/19 01:57:08;;;;;;;12.93;5.95;;;;;;;;;;4996547;28;20027;-70
2022/07/19 01:59:36;;;;;;;12.52;6.30;;;;;;;;;;4978700;28;20396;-70
2022/07/19 02:02:02;;;;;;;16.15;6.00;;;;;;;;;;4996477;28;20487;-69
2022/07/19 02:04:28;;;;;;;12.68;6.30;;;;;;;;;;4995760;28;20092;-69
2022/07/19 02:06:54;;;;;;;12.18;6.50;;;;;;;;;;4996084;28;20050;-69
2022/07/19 02:09:20;;;;;;;15.27;5.85;;;;;;;;;;4995510;28;20030;-70
2022/07/19 02:11:46;;;;;;;11.82;6.20;;;;;;;;;;4995317;28;20022;-70
2022/07/19 02:14:12;;;;;;;11.82;6.30;;;;;;;;;;4978462;28;20366;-69
2022/07/19 02:16:38;;;;;;;13.73;6.00;;;;;;;;;;4996199;28;20023;-69
2022/07/19 02:19:05;;;;;;;11.70;5.60;;;;;;;;;;4996456;28;20499;-69
2022/07/19 02:21:32;;;;;;;12.13;5.93;;;;;;;;;;4995828;28;20030;-70
2022/07/19 02:23:58;;;;;;;15.32;6.57;;;;;;;;;;4995822;28;20030;-69
2022/07/19 02:26:24;;;;;;;15.70;6.57;;;;;;;;;;4995731;28;20060;-69
2022/07/19 02:28:50;;;;;;;14.65;5.95;;;;;;;;;;4995966;28;20037;-69
2022/07/19 02:31:17;;;;;;;9.43;5.80;;;;;;;;;;4995834;28;20027;-70
2022/07/19 02:33:43;;;;;;;14.65;6.68;;;;;;;;;;4996386;28;20644;-69
2022/07/19 02:36:09;;;;;;;12.45;6.03;;;;;;;;;;4995602;28;20503;-69
2022/07/19 02:38:35;;;;;;;12.38;5.80;;;;;;;;;;4995558;28;20027;-70
2022/07/19 02:41:01;;;;;;;9.57;5.53;;;;;;;;;;4996010;28;20044;-69
2022/07/19 02:43:27;;;;;;;13.60;6.15;;;;;;;;;;4995484;28;20105;-70
2022/07/19 02:45:53;;;;;;;12.27;6.45;;;;;;;;;;4995408;28;20019;-69
2022/07/19 02:48:19;;;;;;;11.70;5.60;;;;;;;;;;4995345;28;20559;-69
2022/07/19 02:50:45;;;;;;;11.88;6.00;;;;;;;;;;4995519;28;20491;-70
2022/07/19 02:53:11;;;;;;;15.23;6.07;;;;;;;;;;4995434;28;20480;-70
2022/07/19 02:55:38;;;;;;;14.50;6.00;;;;;;;;;;4995211;28;20037;-70
2022/07/19 02:58:04;;;;;;;10.50;5.82;;;;;;;;;;4995685;28;20101;-70
2022/07/19 03:00:30;;;;;;;11.25;5.20;;;;;;;;;;4977591;28;20022;-69
2022/07/19 03:03:43;;;;;;;11.52;5.55;;;;;;;;;;4994867;28;20057;-70
2022/07/19 03:05:43;;;;;;;13.77;6.13;;;;;;;;;;4994816;28;20051;-69
2022/07/19 03:08:09;;;;;;;10.77;6.43;;;;;;;;;;4995007;28;20543;-70
2022/07/19 03:10:35;;;;;;;10.95;5.47;;;;;;;;;;4994861;28;20365;-69
2022/07/19 03:13:02;;;;;;;14.77;6.75;;;;;;;;;;4995097;28;20539;-69
2022/07/19 03:15:28;;;;;;;11.80;5.93;;;;;;;;;;4994882;28;20024;-69
2022/07/19 03:17:54;;;;;;;11.77;5.88;;;;;;;;;;4995074;28;20030;-69
2022/07/19 03:20:20;;;;;;;18.10;6.43;;;;;;;;;;4977247;28;20542;-70
2022/07/19 03:22:46;;;;;;;15.23;5.90;;;;;;;;;;4994611;28;20034;-70
2022/07/19 03:25:12;;;;;;;13.43;6.00;;;;;;;;;;4994652;28;20081;-70
2022/07/19 03:27:38;;;;;;;8.82;5.32;;;;;;;;;;4994604;28;20030;-70
2022/07/19 03:30:04;;;;;;;14.32;6.22;;;;;;;;;;4995093;28;20497;-69
2022/07/19 03:32:30;;;;;;;10.80;5.38;;;;;;;;;;4994715;28;20034;-69
2022/07/19 03:34:56;;;;;;;12.68;5.47;;;;;;;;;;4995010;28;20101;-70
2022/07/19 03:37:22;;;;;;;11.70;6.05;;;;;;;;;;4994461;28;20551;-70
2022/07/19 03:39:48;;;;;;;13.23;7.00;;;;;;;;;;4994427;28;20110;-71
2022/07/19 03:42:14;;;;;;;13.20;5.90;;;;;;;;;;4994922;28;20065;-69
2022/07/19 03:44:40;;;;;;;13.75;5.75;;;;;;;;;;4994563;28;20077;-70
2022/07/19 03:47:06;;;;;;;12.02;6.28;;;;;;;;;;4994259;28;20393;-70
2022/07/19 03:49:32;;;;;;;13.90;5.93;;;;;;;;;;4994217;28;20060;-70
2022/07/19 03:51:58;;;;;;;19.35;6.63;;;;;;;;;;4994353;28;20030;-70
2022/07/19 03:54:24;;;;;;;10.45;6.10;;;;;;;;;;4994145;28;20025;-69
2022/07/19 03:56:50;;;;;;;11.60;6.00;;;;;;;;;;4994392;28;20034;-69
2022/07/19 03:59:17;;;;;;;10.85;5.38;;;;;;;;;;4993983;28;20111;-68
2022/07/19 04:01:43;;;;;;;11.75;5.50;;;;;;;;;;4994058;28;20089;-69
2022/07/19 04:04:09;;;;;;;14.93;5.90;;;;;;;;;;4993870;28;20544;-70
2022/07/19 04:06:35;;;;;;;10.70;5.53;;;;;;;;;;4993981;28;20105;-70
2022/07/19 04:09:01;;;;;;;10.50;5.50;;;;;;;;;;4993975;28;20056;-69
2022/07/19 04:11:27;;;;;;;11.35;5.80;;;;;;;;;;4993831;28;20604;-69
2022/07/19 04:13:53;;;;;;;16.90;5.88;;;;;;;;;;4994131;28;20029;-69
2022/07/19 04:16:19;;;;;;;13.80;6.22;;;;;;;;;;4993891;28;20049;-69
2022/07/19 04:18:45;;;;;;;11.13;5.47;;;;;;;;;;4993874;28;20023;-69
2022/07/19 04:21:11;;;;;;;11.68;6.13;;;;;;;;;;4993823;28;20034;-70
2022/07/19 04:23:37;;;;;;;14.43;6.10;;;;;;;;;;4993773;28;20037;-69
2022/07/19 04:26:03;;;;;;;14.95;6.18;;;;;;;;;;4993791;28;20496;-69
2022/07/19 04:28:29;;;;;;;10.55;5.25;;;;;;;;;;4993787;28;20094;-70
2022/07/19 04:30:55;;;;;;;10.23;5.65;;;;;;;;;;4994008;28;20031;-70
2022/07/19 04:33:21;;;;;;;11.07;5.85;;;;;;;;;;4994531;28;20022;-70
2022/07/19 04:35:47;;;;;;;10.70;5.75;;;;;;;;;;4998318;28;20022;-69
2022/07/19 04:38:13;;;;;;;11.73;5.25;;;;;;;;;;4998061;28;20046;-70
2022/07/19 04:40:39;;;;;;;13.57;6.40;;;;;;;;;;4998018;28;20030;-68
2022/07/19 04:43:05;;;;;;;12.35;6.22;;;;;;;;;;4998206;28;20034;-70
2022/07/19 04:45:31;;;;;;;9.77;5.30;;;;;;;;;;4997585;28;20038;-69
2022/07/19 04:47:57;;;;;;;12.25;5.90;;;;;;;;;;4997610;28;20026;-69
2022/07/19 04:50:23;;;;;;;11.68;5.80;;;;;;;;;;4997565;28;20026;-70
2022/07/19 04:52:49;;;;;;;13.52;6.18;;;;;;;;;;4997471;28;20034;-69
2022/07/19 04:55:15;;;;;;;12.40;5.60;;;;;;;;;;4997984;28;20062;-69
2022/07/19 04:57:41;;;;;;;13.95;5.88;;;;;;;;;;4997447;28;20054;-68
2022/07/19 05:00:09;;;;;;;14.60;5.70;;;;;;;;;;4997595;28;20049;-69
2022/07/19 05:02:36;;;;;;;13.18;6.20;;;;;;;;;;4997409;28;20129;-70
2022/07/19 05:05:02;;;;;;;13.27;6.03;;;;;;;;;;4997310;28;20045;-69
2022/07/19 05:07:28;;;;;;;18.85;6.53;;;;;;;;;;4997766;28;20030;-70
2022/07/19 05:09:54;;;;;;;10.82;5.57;;;;;;;;;;4979759;28;20034;-69
2022/07/19 05:12:20;;;;;;;16.85;5.75;;;;;;;;;;4997688;28;20050;-69
2022/07/19 05:14:46;;;;;;;15.30;5.85;;;;;;;;;;4997083;28;20023;-69
2022/07/19 05:17:12;;;;;;;13.75;6.15;;;;;;;;;;4997073;28;20029;-70
2022/07/19 05:19:38;;;;;;;11.20;5.72;;;;;;;;;;4997006;28;20053;-69
2022/07/19 05:22:04;;;;;;;12.05;6.00;;;;;;;;;;4997482;28;20026;-69
2022/07/19 05:24:30;;;;;;;17.30;5.50;;;;;;;;;;4979405;28;20088;-69
2022/07/19 05:26:56;;;;;;;11.30;6.07;;;;;;;;;;4996899;28;20030;-69
2022/07/19 05:29:22;;;;;;;16.25;6.80;;;;;;;;;;4996817;28;20532;-68
2022/07/19 05:31:48;;;;;;;13.68;6.10;;;;;;;;;;4996697;28;20026;-70
2022/07/19 05:34:14;;;;;;;18.08;6.68;;;;;;;;;;4997248;28;20023;-70
2022/07/19 05:36:40;;;;;;;10.18;5.65;;;;;;;;;;4996736;28;20446;-69
2022/07/19 05:39:06;;;;;;;13.55;5.93;;;;;;;;;;4996610;28;20062;-69
2022/07/19 05:41:33;;;;;;;11.35;5.97;;;;;;;;;;4997125;28;20053;-70
2022/07/19 05:43:59;;;;;;;11.02;5.82;;;;;;;;;;4996532;28;20026;-70
2022/07/19 05:46:25;;;;;;;16.60;6.18;;;;;;;;;;4996518;28;20026;-69
2022/07/19 05:48:51;;;;;;;11.57;5.93;;;;;;;;;;4996483;28;20058;-69
2022/07/19 05:51:17;;;;;;;15.88;5.95;;;;;;;;;;4996326;28;20088;-69
2022/07/19 05:53:43;;;;;;;8.68;5.60;;;;;;;;;;4996401;28;20061;-69
2022/07/19 05:56:10;;;;;;;14.05;5.97;;;;;;;;;;4996352;28;20393;-69
2022/07/19 05:58:36;;;;;;;13.35;6.30;;;;;;;;;;4996326;28;20058;-69
2022/07/19 06:01:17;;;;;;;12.75;6.47;;;;;;;;;;4996149;28;20030;-68
2022/07/19 06:03:44;;;;;;;12.20;6.15;;;;;;;;;;4996245;28;20086;-70
2022/07/19 06:06:10;;;;;;;11.32;5.30;;;;;;;;;;4978710;28;20490;-68
2022/07/19 06:08:36;;;;;;;11.38;6.45;;;;;;;;;;4996372;28;20373;-70
2022/07/19 06:11:02;;;;;;;10.60;5.70;;;;;;;;;;4996328;28;20030;-68
2022/07/19 06:13:28;;;;;;;17.48;6.75;;;;;;;;;;4996292;28;20397;-69
2022/07/19 06:15:54;;;;;;;11.68;5.30;;;;;;;;;;4995960;28;20392;-69
2022/07/19 06:18:20;;;;;;;16.13;5.85;;;;;;;;;;4995954;28;20037;-69
2022/07/19 06:20:46;;;;;;;11.88;5.47;;;;;;;;;;4996171;28;20033;-70
2022/07/19 06:23:12;;;;;;;23.17;6.68;;;;;;;;;;4995864;28;20030;-69
2022/07/19 06:25:38;;;;;;;10.20;5.32;;;;;;;;;;4996115;28;20033;-69
2022/07/19 06:28:04;;;;;;;9.50;5.28;;;;;;;;;;4996058;28;20030;-69
2022/07/19 06:30:31;;;;;;;12.35;6.05;;;;;;;;;;4978274;28;20453;-70
2022/07/19 06:32:57;;;;;;;12.93;5.88;;;;;;;;;;4995569;28;20034;-70
2022/07/19 06:35:24;;;;;;;11.35;6.18;;;;;;;;;;4996362;28;20029;-70
2022/07/19 06:37:50;;;;;;;12.15;5.90;;;;;;;;;;4995680;28;20033;-69
2022/07/19 06:40:16;;;;;;;10.25;6.43;;;;;;;;;;4995520;28;20077;-70
2022/07/19 06:42:42;;;;;;;11.68;6.80;;;;;;;;;;4995507;28;20030;-70
2022/07/19 06:45:08;;;;;;;13.32;7.13;;;;;;;;;;4995477;28;20026;-70
2022/07/19 06:47:35;;;;;;;12.45;7.50;;;;;;;;;;4995414;28;20062;-69
2022/07/19 06:50:01;;;;;;;12.90;7.55;;;;;;;;;;4995618;28;20026;-69
2022/07/19 06:52:27;;;;;;;14.48;8.68;;;;;;;;;;4995202;28;20035;-69
2022/07/19 06:54:53;;;;;;;15.85;9.10;;;;;;;;;;4995496;28;20079;-69
2022/07/19 06:57:19;;;;;;;16.08;9.35;;;;;;;;;;4994502;28;20105;-69
2022/07/19 06:59:45;;;;;;;19.25;11.10;;;;;;;;;;4995321;28;20050;-69
2022/07/19 07:02:11;;;;;;;15.52;9.23;;;;;;;;;;4995112;28;20374;-69
2022/07/19 07:04:37;;;;;;;16.35;10.45;;;;;;;;;;4994941;28;20053;-70
2022/07/19 07:07:03;;;;;;;15.25;11.18;;;;;;;;;;4995015;28;20473;-70
2022/07/19 07:09:29;;;;;;;17.38;15.30;;;;;;;;;;4994935;28;20030;-69
2022/07/19 07:11:55;;;;;;;21.27;16.52;;;;;;;;;;4981255;28;20062;-75
2022/07/19 07:14:21;;;;;;;17.23;15.27;;;;;;;;;;4994877;28;20085;-76
2022/07/19 07:16:47;;;;;;;22.10;15.27;;;;;;;;;;4994415;28;20062;-80
2022/07/19 07:19:13;;;;;;;21.33;14.82;;;;;;;;;;4994838;28;20464;-82
2022/07/19 07:21:39;;;;;;;19.58;14.27;;;;;;;;;;4995019;28;20034;-79
2022/07/19 07:24:05;;;;;;;14.88;12.73;;;;;;;;;;4994701;28;20073;-68
2022/07/19 07:26:32;;;;;;;17.30;14.30;;;;;;;;;;4994703;28;20030;-70
2022/07/19 07:28:58;;;;;;;17.73;15.30;;;;;;;;;;4987005;28;20478;-72
2022/07/19 07:31:24;;;;;;;16.88;14.50;;;;;;;;;;5002906;28;20084;-74
2022/07/19 07:33:50;;;;;;;19.90;13.93;;;;;;;;;;5013352;28;20026;-74
2022/07/19 07:36:16;;;;;;;15.57;13.98;;;;;;;;;;4994975;28;20026;-73
2022/07/19 07:38:42;;;;;;;26.05;14.32;;;;;;;;;;4987769;28;20051;-73
2022/07/19 07:41:09;;;;;;;18.27;14.50;;;;;;;;;;4976589;28;20032;-70
2022/07/19 07:43:36;;;;;;;15.73;13.13;;;;;;;;;;4992557;28;20033;-69
2022/07/19 07:46:02;;;;;;;15.32;13.25;;;;;;;;;;4974519;28;20127;-70
2022/07/19 07:48:28;;;;;;;19.45;13.32;;;;;;;;;;4974959;28;20450;-77
2022/07/19 07:50:54;;;;;;;15.27;12.65;;;;;;;;;;4974870;28;20037;-74
2022/07/19 07:53:20;;;;;;;16.35;12.43;;;;;;;;;;4974735;28;20031;-74
2022/07/19 07:55:46;;;;;;;15.40;12.07;;;;;;;;;;4984592;28;20029;-73
2022/07/19 07:58:12;;;;;;;17.65;12.93;;;;;;;;;;5006856;28;20056;-70
2022/07/19 08:00:39;;;;;;;16.48;12.52;;;;;;;;;;4979069;28;20031;-80
2022/07/19 08:03:05;;;;;;;14.50;12.63;;;;;;;;;;4983033;28;20042;-76
2022/07/19 08:05:31;;;;;;;14.15;12.63;;;;;;;;;;4974197;28;20043;-76
2022/07/19 08:07:58;;;;;;;15.40;13.23;;;;;;;;;;4982716;28;20030;-75
2022/07/19 08:10:25;;;;;;;17.67;13.23;;;;;;;;;;4992975;28;20062;-76
2022/07/19 08:12:52;;;;;;;25.35;13.73;;;;;;;;;;4991877;28;20562;-77
2022/07/19 08:15:18;;;;;;;19.95;13.13;;;;;;;;;;4993906;28;20048;-69
2022/07/19 08:17:44;;;;;;;14.43;12.93;;;;;;;;;;4993935;28;20027;-76
2022/07/19 08:20:10;;;;;;;25.17;14.18;;;;;;;;;;4994143;28;20531;-78
2022/07/19 08:22:36;;;;;;;19.33;14.25;;;;;;;;;;4991959;28;20073;-74
2022/07/19 08:25:03;;;;;;;15.10;13.10;;;;;;;;;;4962666;28;20093;-77
2022/07/19 08:27:29;;;;;;;17.05;13.50;;;;;;;;;;4974573;28;20023;-76
2022/07/19 08:29:55;;;;;;;17.38;14.00;;;;;;;;;;4974353;28;20069;-75
2022/07/19 08:32:21;;;;;;;16.48;13.57;;;;;;;;;;4979665;28;20034;-72
2022/07/19 08:34:47;;;;;;;16.95;13.38;;;;;;;;;;4972804;28;20037;-71
2022/07/19 08:37:13;;;;;;;14.82;12.85;;;;;;;;;;4973749;28;20031;-72
2022/07/19 08:39:39;;;;;;;13.90;12.43;;;;;;;;;;4974520;28;20362;-75
2022/07/19 08:42:05;;;;;;;15.38;12.85;;;;;;;;;;4976913;28;20157;-74
2022/07/19 08:44:35;;;;;;;17.95;12.93;;;;;;;;;;4993909;28;20034;-75
2022/07/19 08:47:01;;;;;;;14.25;12.75;;;;;;;;;;4980321;28;20102;-69
2022/07/19 08:49:27;;;;;;;16.25;13.82;;;;;;;;;;4974414;28;20038;-68
2022/07/19 08:51:53;;;;;;;21.15;13.13;;;;;;;;;;4974417;28;20035;-74
2022/07/19 08:54:19;;;;;;;17.58;12.70;;;;;;;;;;4984450;28;20027;-70
2022/07/19 08:59:31;;;;;;;31.33;14.23;;;;;;;;;;4978964;28;20551;-71
2022/07/19 09:01:57;;;;;;;15.10;13.20;;;;;;;;;;4976990;28;20041;-75
2022/07/19 09:04:25;;;;;;;17.58;12.30;;;;;;;;;;4974097;28;20507;-77
2022/07/19 09:06:55;;;;;;;16.88;12.88;;;;;;;;;;4974561;28;20050;-73
2022/07/19 09:09:26;;;;;;;17.42;13.18;;;;;;;;;;4974014;28;20034;-74
2022/07/19 09:11:53;;;;;;;19.20;12.93;;;;;;;;;;4973640;28;20089;-71
2022/07/19 09:14:36;;;;;;;14.93;12.20;;;;;;;;;;4974605;28;20397;-74
2022/07/19 09:17:02;;;;;;;18.67;13.15;;;;;;;;;;4993948;28;20031;-75
2022/07/19 09:19:30;;;;;;;13.52;12.13;;;;;;;;;;4994191;28;20444;-72
2022/07/19 09:21:56;;;;;;;14.68;11.73;;;;;;;;;;4997481;28;20026;-72
2022/07/19 09:24:22;;;;;;;14.23;11.68;;;;;;;;;;4995255;28;20034;-76
2022/07/19 09:27:03;;;;;;;15.07;11.18;;;;;;;;;;4963404;28;20449;-75
2022/07/19 09:29:29;;;;;;;14.50;11.88;;;;;;;;;;4987469;28;20031;-70
2022/07/19 09:32:12;;;;;;;14.48;11.70;;;;;;;;;;5002606;28;20026;-78
2022/07/19 09:34:40;;;;;;;18.25;12.50;;;;;;;;;;5008009;28;20391;-76
2022/07/19 09:37:09;;;;;;;19.38;12.25;;;;;;;;;;4979544;28;20095;-75
2022/07/19 09:39:35;;;;;;;19.90;12.43;;;;;;;;;;4996674;28;20109;-76
2022/07/19 09:42:04;;;;;;;16.70;12.80;;;;;;;;;;4990389;28;20026;-68
2022/07/19 09:44:30;;;;;;;16.83;13.60;;;;;;;;;;4977462;28;20041;-73
2022/07/19 09:46:56;;;;;;;14.00;12.25;;;;;;;;;;4977555;28;20038;-71
2022/07/19 09:49:22;;;;;;;19.33;13.95;;;;;;;;;;4976710;28;20035;-71
2022/07/19 09:51:50;;;;;;;19.45;13.30;;;;;;;;;;4977292;28;20034;-74
2022/07/19 09:54:17;;;;;;;18.85;13.55;;;;;;;;;;4974457;28;20022;-74
2022/07/19 09:56:45;;;;;;;17.35;13.70;;;;;;;;;;4996517;28;20436;-74
2022/07/19 09:59:11;;;;;;;15.43;13.82;;;;;;;;;;4985906;28;20030;-74
2022/07/19 10:01:38;;;;;;;15.65;13.77;;;;;;;;;;4986762;28;20034;-75
2022/07/19 10:04:07;;;;;;;19.60;14.95;;;;;;;;;;4959215;28;21130;-71
2022/07/19 10:06:33;;;;;;;19.42;14.25;;;;;;;;;;4992922;28;20505;-70
2022/07/19 10:09:00;;;;;;;17.92;14.05;;;;;;;;;;4977028;28;20493;-69
2022/07/19 10:11:26;;;;;;;17.90;14.73;;;;;;;;;;4976579;28;20026;-75
2022/07/19 10:13:54;;;;;;;17.55;14.05;;;;;;;;;;4976386;28;20552;-76
2022/07/19 10:16:25;;;;;;;17.63;13.32;;;;;;;;;;4976727;28;20066;-76
2022/07/19 10:19:11;;;;;;;17.70;12.77;;;;;;;;;;4959646;28;20461;-72
2022/07/19 10:21:38;;;;;;;17.98;12.63;;;;;;;;;;4997454;28;20049;-75
2022/07/19 10:24:04;;;;;;;15.18;12.57;;;;;;;;;;4998784;28;20031;-70
2022/07/19 10:26:37;;;;;;;15.00;13.20;;;;;;;;;;4996031;28;20077;-77
2022/07/19 10:29:15;;;;;;;18.73;12.65;;;;;;;;;;4996858;28;20503;-69
2022/07/19 10:31:42;;;;;;;18.50;13.30;;;;;;;;;;4987076;28;20058;-74
2022/07/19 10:34:09;;;;;;;16.60;13.45;;;;;;;;;;4995765;28;20027;-70
2022/07/19 10:36:36;;;;;;;19.83;13.00;;;;;;;;;;4996148;28;20018;-71
2022/07/19 10:39:21;;;;;;;19.60;14.00;;;;;;;;;;4976296;28;20117;-70
2022/07/19 10:42:05;;;;;;;15.93;13.27;;;;;;;;;;4994629;28;20500;-71
2022/07/19 10:44:32;;;;;;;17.90;13.75;;;;;;;;;;4994566;28;20456;-71
2022/07/19 10:46:58;;;;;;;20.05;14.05;;;;;;;;;;4994191;28;20057;-71
2022/07/19 10:49:43;;;;;;;18.95;13.35;;;;;;;;;;4995357;28;20089;-70
2022/07/19 10:52:38;;;;;;;18.13;12.90;;;;;;;;;;4995309;28;20033;-71
2022/07/19 10:57:45;;;;;;;17.90;13.73;;;;;;;;;;4994987;28;20034;-71
2022/07/19 11:00:27;;;;;;;16.05;12.38;;;;;;;;;;4977588;28;20034;-71
2022/07/19 11:03:14;;;;;;;18.33;13.45;;;;;;;;;;4995314;28;20527;-70
2022/07/19 11:05:47;;;;;;;17.23;12.73;;;;;;;;;;4994872;28;20031;-71
2022/07/19 11:08:14;;;;;;;15.98;11.70;;;;;;;;;;4995259;28;20053;-70
2022/07/19 11:10:40;;;;;;;17.73;11.90;;;;;;;;;;4995425;28;20058;-70
2022/07/19 11:13:06;;;;;;;17.70;12.35;;;;;;;;;;4994883;28;20061;-71
2022/07/19 11:15:32;;;;;;;17.02;11.95;;;;;;;;;;4977450;28;20073;-71
2022/07/19 11:17:58;;;;;;;17.17;11.38;;;;;;;;;;4995299;28;20109;-71
2022/07/19 11:20:25;;;;;;;19.60;12.50;;;;;;;;;;4994840;28;20029;-71
2022/07/19 11:22:52;;;;;;;14.20;11.63;;;;;;;;;;4995113;28;20492;-71
2022/07/19 11:25:24;;;;;;;15.55;11.88;;;;;;;;;;4994518;28;20085;-70
2022/07/19 11:27:50;;;;;;;19.65;12.43;;;;;;;;;;4995538;28;20034;-71
2022/07/19 11:30:16;;;;;;;18.35;12.77;;;;;;;;;;4994658;28;20397;-70
2022/07/19 11:32:43;;;;;;;15.70;11.38;;;;;;;;;;4994382;28;20053;-70
2022/07/19 11:35:10;;;;;;;14.50;11.80;;;;;;;;;;4995056;28;20022;-70
2022/07/19 11:37:40;;;;;;;17.65;12.25;;;;;;;;;;4994771;28;20105;-70
2022/07/19 11:40:07;;;;;;;18.45;12.15;;;;;;;;;;4994289;28;20033;-70
2022/07/19 11:42:35;;;;;;;18.17;12.63;;;;;;;;;;4994181;28;20396;-70
2022/07/19 11:45:08;;;;;;;15.23;11.75;;;;;;;;;;4994406;28;20507;-70
2022/07/19 11:47:34;;;;;;;18.90;12.90;;;;;;;;;;4994317;28;20056;-70
2022/07/19 11:50:07;;;;;;;19.85;12.13;;;;;;;;;;4994338;28;20037;-71
2022/07/19 11:52:48;;;;;;;18.13;12.50;;;;;;;;;;4994654;28;20443;-71
2022/07/19 11:55:17;;;;;;;15.73;12.63;;;;;;;;;;4994273;28;20027;-70
2022/07/19 11:57:43;;;;;;;16.52;11.93;;;;;;;;;;4994520;28;20053;-70
2022/07/19 12:00:10;;;;;;;16.90;12.95;;;;;;;;;;4994378;28;20023;-70
2022/07/19 12:02:58;;;;;;;18.02;12.13;;;;;;;;;;4993928;28;20077;-71
2022/07/19 12:05:28;;;;;;;18.05;13.70;;;;;;;;;;4994068;28;20396;-71
2022/07/19 12:07:57;;;;;;;19.00;12.02;;;;;;;;;;4976775;28;20034;-71
2022/07/19 12:10:41;;;;;;;17.00;13.27;;;;;;;;;;4994589;28;20026;-71
2022/07/19 12:13:09;;;;;;;18.00;12.77;;;;;;;;;;4976503;28;20041;-72
2022/07/19 12:16:01;;;;;;;19.15;12.02;;;;;;;;;;4994464;28;20022;-71
2022/07/19 12:18:54;;;;;;;17.08;11.43;;;;;;;;;;4972284;28;20034;-70
2022/07/19 12:21:32;;;;;;;17.60;11.18;;;;;;;;;;4989830;28;20038;-71
2022/07/19 12:24:17;;;;;;;18.15;12.85;;;;;;;;;;4994011;28;20026;-70
2022/07/19 12:26:54;;;;;;;16.35;11.85;;;;;;;;;;4993851;28;20392;-71
2022/07/19 12:29:35;;;;;;;19.65;11.82;;;;;;;;;;4976042;28;20405;-72
2022/07/19 12:32:06;;;;;;;17.70;13.23;;;;;;;;;;4994124;28;20029;-70
2022/07/19 12:34:49;;;;;;;16.60;11.52;;;;;;;;;;4976042;28;20500;-71
2022/07/19 12:37:28;;;;;;;15.73;11.43;;;;;;;;;;4994709;28;20019;-75
2022/07/19 12:39:57;;;;;;;22.05;12.55;;;;;;;;;;4976319;28;20030;-70
2022/07/19 12:42:23;;;;;;;16.25;11.82;;;;;;;;;;4976139;28;20037;-70
2022/07/19 12:44:49;;;;;;;16.52;11.45;;;;;;;;;;4993660;28;20022;-71
2022/07/19 12:47:16;;;;;;;16.05;11.55;;;;;;;;;;4993609;28;20030;-70
2022/07/19 12:49:46;;;;;;;17.50;12.07;;;;;;;;;;4976125;28;20056;-70
2022/07/19 12:52:12;;;;;;;15.90;11.40;;;;;;;;;;4993740;28;20038;-70
2022/07/19 12:54:38;;;;;;;16.73;10.95;;;;;;;;;;4994814;28;20490;-70
2022/07/19 12:57:04;;;;;;;17.00;11.70;;;;;;;;;;4997770;28;20018;-70
2022/07/19 12:59:40;;;;;;;16.27;10.80;;;;;;;;;;4997625;28;20469;-71
2022/07/19 13:02:06;;;;;;;15.82;10.70;;;;;;;;;;4997369;28;20031;-70
2022/07/19 13:04:32;;;;;;;15.95;11.07;;;;;;;;;;4996944;28;20093;-71
2022/07/19 13:06:58;;;;;;;13.35;9.63;;;;;;;;;;4997702;28;20160;-72
2022/07/19 13:09:24;;;;;;;16.83;11.00;;;;;;;;;;4997537;28;20408;-71
2022/07/19 13:11:50;;;;;;;13.52;10.27;;;;;;;;;;4997154;28;20022;-70
2022/07/19 13:14:16;;;;;;;16.23;10.70;;;;;;;;;;4997175;28;20050;-71
2022/07/19 13:16:42;;;;;;;14.95;10.55;;;;;;;;;;4997380;28;20029;-70
2022/07/19 13:19:08;;;;;;;17.00;11.23;;;;;;;;;;4997172;28;20500;-71
2022/07/19 13:21:35;;;;;;;18.65;11.07;;;;;;;;;;4997284;28;20473;-70
2022/07/19 13:24:01;;;;;;;15.85;10.80;;;;;;;;;;4996925;28;20034;-70
2022/07/19 13:26:28;;;;;;;18.10;11.10;;;;;;;;;;4979434;28;20026;-71
2022/07/19 13:28:54;;;;;;;15.23;10.80;;;;;;;;;;4996809;28;20027;-71
2022/07/19 13:31:20;;;;;;;14.23;10.95;;;;;;;;;;4996638;28;20022;-70
2022/07/19 13:33:46;;;;;;;15.18;10.52;;;;;;;;;;4997064;28;20381;-70
2022/07/19 13:36:12;;;;;;;18.33;11.70;;;;;;;;;;4997173;28;20027;-71
2022/07/19 13:38:40;;;;;;;16.13;10.82;;;;;;;;;;4997034;28;20026;-70
2022/07/19 13:41:07;;;;;;;15.07;10.70;;;;;;;;;;4997206;28;20489;-70
2022/07/19 13:43:33;;;;;;;18.08;10.40;;;;;;;;;;4996264;28;20026;-70
2022/07/19 13:46:00;;;;;;;16.00;10.15;;;;;;;;;;4996371;28;20023;-71
2022/07/19 13:48:26;;;;;;;15.85;9.80;;;;;;;;;;4997000;28;20035;-70
2022/07/19 13:50:53;;;;;;;18.20;10.00;;;;;;;;;;4996721;28;20084;-71
2022/07/19 13:53:19;;;;;;;16.80;10.32;;;;;;;;;;4996377;28;20030;-71
2022/07/19 13:55:45;;;;;;;14.45;9.05;;;;;;;;;;4996396;28;20033;-70
2022/07/19 13:58:11;;;;;;;17.08;10.05;;;;;;;;;;4996642;28;20377;-70
2022/07/19 14:00:37;;;;;;;15.07;9.68;;;;;;;;;;4996240;28;20472;-71
2022/07/19 14:03:03;;;;;;;13.50;10.02;;;;;;;;;;4996033;28;20054;-70
2022/07/19 14:05:29;;;;;;;12.05;8.45;;;;;;;;;;4996402;28;20030;-69
2022/07/19 14:07:55;;;;;;;15.30;9.23;;;;;;;;;;4996504;28;20034;-70
2022/07/19 14:10:21;;;;;;;12.35;9.30;;;;;;;;;;4996500;28;20023;-70
2022/07/19 14:12:47;;;;;;;15.48;9.25;;;;;;;;;;4996353;28;20053;-71
2022/07/19 14:15:13;;;;;;;15.02;9.80;;;;;;;;;;4996506;28;20026;-70
2022/07/19 14:17:39;;;;;;;14.02;10.40;;;;;;;;;;4996542;28;20042;-70
2022/07/19 14:20:06;;;;;;;14.32;9.20;;;;;;;;;;4978558;28;20026;-70
2022/07/19 14:22:32;;;;;;;11.32;7.35;;;;;;;;;;4996161;28;20447;-70
2022/07/19 14:24:59;;;;;;;12.55;7.32;;;;;;;;;;4995879;28;20105;-70
2022/07/19 14:27:25;;;;;;;11.15;7.45;;;;;;;;;;4995792;28;20026;-70
2022/07/19 14:29:52;;;;;;;19.58;7.90;;;;;;;;;;4995616;28;20026;-70
2022/07/19 14:32:18;;;;;;;11.68;8.05;;;;;;;;;;4978135;28;20401;-71